createdAt,value
2016-11-08T00:00:19.525Z,16
2016-11-08T00:01:29.961Z,12
2016-11-08T00:02:40.403Z,12
2016-11-08T00:05:16.408Z,12
2016-11-08T00:06:26.849Z,12
2016-11-08T00:08:06.375Z,8
2016-11-08T00:09:16.816Z,16
2016-11-08T00:10:42.028Z,16
2016-11-08T00:11:52.464Z,16
2016-11-08T00:13:02.905Z,12
2016-11-08T00:14:13.420Z,12
2016-11-08T00:15:23.952Z,12
2016-11-08T00:16:34.684Z,12
2016-11-08T00:17:45.214Z,12
2016-11-08T00:18:55.746Z,12
2016-11-08T00:20:06.289Z,12
2016-11-08T00:21:16.823Z,12
2016-11-08T00:22:27.465Z,12
2016-11-08T00:23:52.561Z,12
2016-11-08T00:25:03.096Z,12
2016-11-08T00:26:13.634Z,12
2016-11-08T00:27:24.262Z,12
2016-11-08T00:28:35.297Z,12
2016-11-08T00:29:45.831Z,12
2016-11-08T00:31:10.888Z,12
2016-11-08T00:32:21.419Z,12
2016-11-08T00:33:32.152Z,12
2016-11-08T00:34:42.685Z,4
2016-11-08T00:36:07.741Z,4
2016-11-08T00:37:18.273Z,4
2016-11-08T00:38:43.330Z,4
2016-11-08T00:40:08.387Z,12
2016-11-08T00:41:18.957Z,12
2016-11-08T00:42:29.525Z,12
2016-11-08T00:45:19.837Z,8
2016-11-08T00:46:30.370Z,16
2016-11-08T00:47:40.904Z,12
2016-11-08T00:48:51.473Z,12
2016-11-08T00:51:27.097Z,12
2016-11-08T00:52:37.630Z,12
2016-11-08T00:53:48.163Z,4
2016-11-08T00:54:58.891Z,4
2016-11-08T00:56:09.423Z,12
2016-11-08T00:57:19.991Z,12
2016-11-08T00:58:30.526Z,12
2016-11-08T00:59:41.094Z,12
2016-11-08T01:00:51.826Z,12
2016-11-08T01:02:16.889Z,8
2016-11-08T01:03:27.422Z,12
2016-11-08T01:04:37.950Z,12
2016-11-08T01:05:48.478Z,16
2016-11-08T01:06:59.006Z,12
2016-11-08T01:08:09.542Z,12
2016-11-08T01:09:20.095Z,12
2016-11-08T01:10:45.162Z,12
2016-11-08T01:12:10.318Z,12
2016-11-08T01:13:20.855Z,12
2016-11-08T01:14:31.390Z,12
2016-11-08T01:15:41.926Z,12
2016-11-08T01:16:52.461Z,12
2016-11-08T01:18:03.005Z,12
2016-11-08T01:19:13.536Z,16
2016-11-08T01:20:24.065Z,12
2016-11-08T01:21:34.601Z,12
2016-11-08T01:22:59.762Z,12
2016-11-08T01:24:24.818Z,12
2016-11-08T01:25:35.347Z,12
2016-11-08T01:27:00.397Z,12
2016-11-08T01:28:25.362Z,12
2016-11-08T01:29:50.331Z,12
2016-11-08T01:31:00.741Z,8
2016-11-08T01:32:11.153Z,4
2016-11-08T01:33:21.568Z,16
2016-11-08T01:34:31.986Z,12
2016-11-08T01:35:42.402Z,12
2016-11-08T01:36:52.818Z,12
2016-11-08T01:38:17.818Z,12
2016-11-08T01:39:28.237Z,12
2016-11-08T01:40:38.645Z,12
2016-11-08T01:41:49.056Z,12
2016-11-08T01:42:59.507Z,12
2016-11-08T01:44:09.917Z,16
2016-11-08T01:45:20.817Z,12
2016-11-08T01:46:31.233Z,4
2016-11-08T01:47:41.681Z,12
2016-11-08T01:48:52.098Z,12
2016-11-08T01:50:03.193Z,12
2016-11-08T01:51:13.605Z,12
2016-11-08T01:52:24.026Z,12
2016-11-08T01:53:34.435Z,12
2016-11-08T01:54:59.429Z,4
2016-11-08T01:56:09.874Z,4
2016-11-08T01:57:20.313Z,8
2016-11-08T01:58:30.731Z,12
2016-11-08T01:59:41.144Z,12
2016-11-08T02:00:51.755Z,12
2016-11-08T02:02:02.169Z,12
2016-11-08T02:03:12.614Z,12
2016-11-08T02:04:23.031Z,12
2016-11-08T02:05:33.447Z,12
2016-11-08T02:06:44.063Z,12
2016-11-08T02:07:54.475Z,12
2016-11-08T02:09:04.890Z,12
2016-11-08T02:10:15.314Z,12
2016-11-08T02:11:25.727Z,12
2016-11-08T02:12:36.346Z,4
2016-11-08T02:13:46.758Z,4
2016-11-08T02:14:57.163Z,12
2016-11-08T02:16:07.580Z,16
2016-11-08T02:17:17.993Z,12
2016-11-08T02:18:28.607Z,12
2016-11-08T02:19:39.018Z,12
2016-11-08T02:20:49.431Z,12
2016-11-08T02:21:59.843Z,12
2016-11-08T02:23:10.255Z,12
2016-11-08T02:24:20.778Z,12
2016-11-08T02:25:31.193Z,12
2016-11-08T02:26:41.611Z,12
2016-11-08T02:27:52.507Z,12
2016-11-08T02:30:28.572Z,16
2016-11-08T02:31:38.988Z,12
2016-11-08T02:33:03.948Z,12
2016-11-08T02:34:14.453Z,12
2016-11-08T02:35:25.216Z,12
2016-11-08T02:36:35.749Z,12
2016-11-08T02:37:46.281Z,12
2016-11-08T02:38:56.813Z,12
2016-11-08T02:40:07.344Z,12
2016-11-08T02:41:17.875Z,16
2016-11-08T02:42:28.410Z,12
2016-11-08T02:43:38.938Z,12
2016-11-08T02:44:49.470Z,12
2016-11-08T02:46:00.001Z,12
2016-11-08T02:47:10.738Z,12
2016-11-08T02:49:46.330Z,12
2016-11-08T02:50:56.862Z,12
2016-11-08T02:52:07.393Z,12
2016-11-08T02:53:17.923Z,12
2016-11-08T02:54:28.457Z,12
2016-11-08T02:55:38.995Z,12
2016-11-08T02:56:49.526Z,12
2016-11-08T02:58:00.259Z,12
2016-11-08T03:00:35.843Z,12
2016-11-08T03:01:46.448Z,8
2016-11-08T03:02:57.080Z,8
2016-11-08T03:04:07.613Z,16
2016-11-08T03:05:18.208Z,12
2016-11-08T03:06:28.741Z,12
2016-11-08T03:07:39.268Z,12
2016-11-08T03:08:50.000Z,12
2016-11-08T03:10:00.528Z,12
2016-11-08T03:11:11.063Z,12
2016-11-08T03:12:21.597Z,12
2016-11-08T03:13:32.131Z,12
2016-11-08T03:14:42.768Z,12
2016-11-08T03:15:53.367Z,12
2016-11-08T03:18:29.482Z,12
2016-11-08T03:19:40.211Z,12
2016-11-08T03:22:15.831Z,12
2016-11-08T03:23:26.367Z,12
2016-11-08T03:24:36.938Z,12
2016-11-08T03:25:47.669Z,12
2016-11-08T03:26:58.233Z,12
2016-11-08T03:28:09.260Z,12
2016-11-08T03:29:19.793Z,12
2016-11-08T03:30:30.373Z,12
2016-11-08T03:31:40.941Z,16
2016-11-08T03:32:51.471Z,16
2016-11-08T03:34:02.006Z,16
2016-11-08T03:35:12.540Z,16
2016-11-08T03:36:23.177Z,16
2016-11-08T03:37:33.746Z,16
2016-11-08T03:38:58.805Z,16
2016-11-08T03:40:09.257Z,16
2016-11-08T03:41:19.767Z,16
2016-11-08T03:42:30.186Z,16
2016-11-08T03:43:40.603Z,16
2016-11-08T03:44:51.016Z,16
2016-11-08T03:46:01.427Z,16
2016-11-08T03:47:11.940Z,16
2016-11-08T03:48:22.352Z,12
2016-11-08T03:49:32.848Z,16
2016-11-08T03:50:43.916Z,12
2016-11-08T03:51:54.447Z,12
2016-11-08T03:53:05.174Z,12
2016-11-08T03:54:15.711Z,12
2016-11-08T03:55:40.768Z,12
2016-11-08T03:56:52.291Z,12
2016-11-08T03:58:02.822Z,12
2016-11-08T03:59:13.355Z,12
2016-11-08T04:00:23.894Z,12
2016-11-08T04:01:34.465Z,12
2016-11-08T04:02:45.006Z,12
2016-11-08T04:03:55.537Z,12
2016-11-08T04:05:06.066Z,12
2016-11-08T04:06:16.602Z,8
2016-11-08T04:07:27.134Z,16
2016-11-08T04:08:37.663Z,12
2016-11-08T04:09:48.296Z,12
2016-11-08T04:10:58.826Z,12
2016-11-08T04:12:09.401Z,12
2016-11-08T04:13:49.014Z,12
2016-11-08T04:14:59.463Z,8
2016-11-08T04:16:09.881Z,16
2016-11-08T04:17:20.296Z,12
2016-11-08T04:18:30.707Z,12
2016-11-08T04:19:41.121Z,12
2016-11-08T04:20:51.739Z,16
2016-11-08T04:22:02.156Z,12
2016-11-08T04:23:12.577Z,16
2016-11-08T04:24:22.989Z,12
2016-11-08T04:25:33.403Z,12
2016-11-08T04:26:43.915Z,12
2016-11-08T04:27:54.326Z,12
2016-11-08T04:29:05.224Z,12
2016-11-08T04:30:15.637Z,12
2016-11-08T04:31:26.052Z,12
2016-11-08T04:32:36.564Z,12
2016-11-08T04:33:46.973Z,8
2016-11-08T04:34:57.386Z,8
2016-11-08T04:36:07.803Z,12
2016-11-08T04:37:18.217Z,16
2016-11-08T04:38:28.726Z,16
2016-11-08T04:39:39.145Z,16
2016-11-08T04:40:49.562Z,16
2016-11-08T04:42:00.010Z,16
2016-11-08T04:43:10.426Z,16
2016-11-08T04:44:21.038Z,16
2016-11-08T04:45:31.451Z,16
2016-11-08T04:46:41.875Z,16
2016-11-08T04:47:52.281Z,12
2016-11-08T04:49:02.808Z,12
2016-11-08T04:50:13.343Z,12
2016-11-08T04:51:23.894Z,12
2016-11-08T04:52:34.450Z,12
2016-11-08T04:53:44.979Z,12
2016-11-08T04:54:55.543Z,12
2016-11-08T04:56:06.074Z,12
2016-11-08T04:57:16.601Z,12
2016-11-08T04:58:27.162Z,12
2016-11-08T04:59:37.691Z,12
2016-11-08T05:00:48.219Z,12
2016-11-08T05:01:58.751Z,12
2016-11-08T05:03:23.845Z,12
2016-11-08T05:04:34.378Z,12
2016-11-08T05:05:44.912Z,12
2016-11-08T05:06:55.643Z,12
2016-11-08T05:08:06.217Z,12
2016-11-08T05:09:16.746Z,12
2016-11-08T05:10:27.278Z,12
2016-11-08T05:11:37.813Z,8
2016-11-08T05:12:48.478Z,16
2016-11-08T05:13:59.004Z,12
2016-11-08T05:15:09.536Z,12
2016-11-08T05:16:20.073Z,12
2016-11-08T05:17:30.602Z,12
2016-11-08T05:18:41.131Z,12
2016-11-08T05:19:51.665Z,12
2016-11-08T05:21:02.687Z,12
2016-11-08T05:22:13.721Z,12
2016-11-08T05:23:24.251Z,16
2016-11-08T05:24:34.889Z,12
2016-11-08T05:25:45.418Z,12
2016-11-08T05:26:55.956Z,12
2016-11-08T05:28:06.487Z,12
2016-11-08T05:29:16.946Z,12
2016-11-08T05:30:27.584Z,12
2016-11-08T05:31:38.022Z,12
2016-11-08T05:32:48.463Z,12
2016-11-08T05:33:58.905Z,12
2016-11-08T05:35:10.318Z,12
2016-11-08T05:36:20.958Z,12
2016-11-08T05:37:31.436Z,4
2016-11-08T05:38:41.875Z,16
2016-11-08T05:39:52.313Z,12
2016-11-08T05:41:02.751Z,12
2016-11-08T05:42:13.288Z,12
2016-11-08T05:43:23.727Z,12
2016-11-08T05:44:34.166Z,12
2016-11-08T05:45:44.604Z,12
2016-11-08T05:46:55.045Z,12
2016-11-08T05:48:05.583Z,12
2016-11-08T05:49:16.025Z,8
2016-11-08T05:50:26.465Z,12
2016-11-08T05:51:36.939Z,12
2016-11-08T05:52:47.378Z,12
2016-11-08T05:53:57.855Z,12
2016-11-08T05:55:08.788Z,12
2016-11-08T05:56:19.147Z,12
2016-11-08T05:57:29.467Z,12
2016-11-08T05:58:39.791Z,12
2016-11-08T05:59:50.313Z,12
2016-11-08T06:01:00.631Z,12
2016-11-08T06:02:10.956Z,12
2016-11-08T06:03:21.273Z,12
2016-11-08T06:04:31.638Z,8
2016-11-08T06:05:42.090Z,4
2016-11-08T06:06:52.409Z,16
2016-11-08T06:08:02.730Z,16
2016-11-08T06:09:13.066Z,12
2016-11-08T06:10:23.392Z,12
2016-11-08T06:11:33.945Z,12
2016-11-08T06:12:44.266Z,12
2016-11-08T06:13:54.586Z,12
2016-11-08T06:15:04.908Z,16
2016-11-08T06:16:15.226Z,12
2016-11-08T06:17:25.645Z,12
2016-11-08T06:18:36.003Z,12
2016-11-08T06:19:46.323Z,12
2016-11-08T06:20:56.644Z,12
2016-11-08T06:22:06.967Z,12
2016-11-08T06:23:17.291Z,12
2016-11-08T06:24:28.422Z,12
2016-11-08T06:25:38.744Z,12
2016-11-08T06:26:49.067Z,12
2016-11-08T06:27:59.388Z,12
2016-11-08T06:29:09.906Z,12
2016-11-08T06:30:20.228Z,12
2016-11-08T06:31:30.551Z,12
2016-11-08T06:32:40.869Z,12
2016-11-08T06:33:51.232Z,12
2016-11-08T06:35:01.654Z,12
2016-11-08T06:36:12.491Z,12
2016-11-08T06:37:23.289Z,12
2016-11-08T06:38:33.644Z,12
2016-11-08T06:39:43.963Z,12
2016-11-08T06:40:54.291Z,12
2016-11-08T06:42:04.612Z,12
2016-11-08T06:43:14.933Z,12
2016-11-08T06:44:25.250Z,12
2016-11-08T06:45:35.571Z,12
2016-11-08T06:48:10.787Z,12
2016-11-08T06:49:21.104Z,4
2016-11-08T06:50:31.426Z,4
2016-11-08T06:51:41.749Z,12
2016-11-08T06:52:52.073Z,12
2016-11-08T06:54:02.427Z,12
2016-11-08T06:55:12.747Z,12
2016-11-08T06:56:23.068Z,12
2016-11-08T06:57:33.387Z,12
2016-11-08T06:58:43.824Z,12
2016-11-08T06:59:54.232Z,12
2016-11-08T07:02:29.610Z,12
2016-11-08T07:03:40.019Z,12
2016-11-08T07:05:04.984Z,12
2016-11-08T07:06:15.405Z,12
2016-11-08T07:07:25.815Z,12
2016-11-08T07:08:36.425Z,12
2016-11-08T07:09:46.838Z,12
2016-11-08T07:10:57.248Z,12
2016-11-08T07:12:07.664Z,12
2016-11-08T07:13:18.300Z,12
2016-11-08T07:14:28.713Z,12
2016-11-08T07:15:39.126Z,12
2016-11-08T07:16:49.537Z,12
2016-11-08T07:18:14.497Z,12
2016-11-08T07:19:24.912Z,12
2016-11-08T07:20:35.327Z,12
2016-11-08T07:21:45.739Z,4
2016-11-08T07:22:56.154Z,4
2016-11-08T07:24:06.667Z,4
2016-11-08T07:25:17.078Z,16
2016-11-08T07:26:27.492Z,12
2016-11-08T07:27:37.901Z,12
2016-11-08T07:28:48.312Z,12
2016-11-08T07:29:58.923Z,8
2016-11-08T07:31:09.336Z,12
2016-11-08T07:32:19.748Z,8
2016-11-08T07:33:30.162Z,4
2016-11-08T07:34:40.577Z,4
2016-11-08T07:35:51.517Z,12
2016-11-08T07:37:02.057Z,16
2016-11-08T07:38:12.589Z,12
2016-11-08T07:39:23.121Z,12
2016-11-08T07:40:33.687Z,12
2016-11-08T07:41:44.416Z,8
2016-11-08T07:42:54.947Z,12
2016-11-08T07:44:05.405Z,12
2016-11-08T07:45:16.333Z,4
2016-11-08T07:46:27.262Z,12
2016-11-08T07:47:37.905Z,16
2016-11-08T07:48:48.352Z,12
2016-11-08T07:49:58.795Z,12
2016-11-08T07:51:09.236Z,12
2016-11-08T07:52:19.679Z,12
2016-11-08T07:53:30.123Z,12
2016-11-08T07:54:40.562Z,8
2016-11-08T07:55:51.002Z,16
2016-11-08T07:57:01.443Z,16
2016-11-08T07:58:11.875Z,16
2016-11-08T07:59:37.088Z,16
2016-11-08T08:02:12.570Z,12
2016-11-08T08:03:23.008Z,12
2016-11-08T08:04:33.643Z,16
2016-11-08T08:05:58.632Z,12
2016-11-08T08:07:09.111Z,8
2016-11-08T08:08:19.550Z,16
2016-11-08T08:09:30.185Z,20
2016-11-08T08:10:55.170Z,20
2016-11-08T08:12:05.616Z,16
2016-11-08T08:13:16.050Z,20
2016-11-08T08:14:26.521Z,20
2016-11-08T08:15:36.957Z,20
2016-11-08T08:18:12.384Z,8
2016-11-08T08:19:22.825Z,16
2016-11-08T08:20:33.263Z,16
2016-11-08T08:21:43.704Z,16
2016-11-08T08:22:54.141Z,20
2016-11-08T08:24:04.583Z,20
2016-11-08T08:25:15.049Z,20
2016-11-08T08:26:25.483Z,20
2016-11-08T08:27:35.917Z,24
2016-11-08T08:28:46.353Z,28
2016-11-08T08:29:56.784Z,28
2016-11-08T08:31:07.221Z,32
2016-11-08T08:32:17.857Z,36
2016-11-08T08:33:28.290Z,40
2016-11-08T08:34:38.728Z,48
2016-11-08T08:35:49.170Z,56
2016-11-08T08:36:59.606Z,64
2016-11-08T08:38:10.084Z,72
2016-11-08T08:39:20.520Z,76
2016-11-08T08:40:30.952Z,84
2016-11-08T08:41:41.420Z,88
2016-11-08T08:42:51.772Z,92
2016-11-08T08:44:02.188Z,96
2016-11-08T08:45:12.536Z,104
2016-11-08T08:47:47.770Z,128
2016-11-08T08:48:58.086Z,132
2016-11-08T08:50:08.406Z,136
2016-11-08T08:51:18.724Z,144
2016-11-08T08:52:29.048Z,148
2016-11-08T08:53:39.367Z,152
2016-11-08T08:54:49.883Z,156
2016-11-08T08:56:00.201Z,160
2016-11-08T08:57:10.524Z,172
2016-11-08T08:58:20.849Z,176
2016-11-08T08:59:45.736Z,184
2016-11-08T09:00:56.083Z,188
2016-11-08T09:02:06.431Z,192
2016-11-08T09:03:16.752Z,200
2016-11-08T09:05:52.008Z,212
2016-11-08T09:07:02.327Z,228
2016-11-08T09:08:12.649Z,232
2016-11-08T09:09:22.967Z,248
2016-11-08T09:10:33.287Z,256
2016-11-08T09:11:43.709Z,244
2016-11-08T09:12:54.026Z,240
2016-11-08T09:14:04.426Z,256
2016-11-08T09:15:14.842Z,276
2016-11-08T09:17:50.214Z,300
2016-11-08T09:19:00.625Z,308
2016-11-08T09:20:11.034Z,328
2016-11-08T09:21:21.451Z,324
2016-11-08T09:22:31.861Z,308
2016-11-08T09:23:42.300Z,304
2016-11-08T09:24:52.708Z,308
2016-11-08T09:26:03.119Z,308
2016-11-08T09:28:38.560Z,324
2016-11-08T09:29:48.973Z,352
2016-11-08T09:30:59.391Z,352
2016-11-08T09:32:09.802Z,348
2016-11-08T09:33:20.419Z,368
2016-11-08T09:34:30.834Z,408
2016-11-08T09:35:41.254Z,416
2016-11-08T09:36:51.666Z,424
2016-11-08T09:38:02.764Z,416
2016-11-08T09:39:13.180Z,424
2016-11-08T09:40:38.140Z,452
2016-11-08T09:41:48.550Z,436
2016-11-08T09:43:13.512Z,456
2016-11-08T09:44:23.920Z,472
2016-11-08T09:45:34.334Z,504
2016-11-08T09:46:44.745Z,564
2016-11-08T09:47:55.158Z,628
2016-11-08T09:49:05.571Z,684
2016-11-08T09:50:15.981Z,696
2016-11-08T09:51:40.942Z,736
2016-11-08T09:53:05.903Z,732
2016-11-08T09:54:16.315Z,712
2016-11-08T09:55:26.832Z,668
2016-11-08T09:56:37.242Z,656
2016-11-08T09:57:47.651Z,640
2016-11-08T09:58:57.992Z,656
2016-11-08T10:00:08.315Z,676
2016-11-08T10:01:18.838Z,704
2016-11-08T10:02:29.156Z,700
2016-11-08T10:03:39.473Z,692
2016-11-08T10:04:49.796Z,708
2016-11-08T10:06:00.115Z,688
2016-11-08T10:07:10.471Z,672
2016-11-08T10:08:20.792Z,656
2016-11-08T10:09:31.116Z,644
2016-11-08T10:10:41.438Z,692
2016-11-08T10:11:51.756Z,756
2016-11-08T10:13:02.075Z,724
2016-11-08T10:14:12.395Z,712
2016-11-08T10:15:22.715Z,648
2016-11-08T10:16:47.606Z,620
2016-11-08T10:17:57.933Z,644
2016-11-08T10:19:08.300Z,656
2016-11-08T10:20:18.623Z,656
2016-11-08T10:21:28.947Z,640
2016-11-08T10:22:39.269Z,616
2016-11-08T10:23:50.066Z,604
2016-11-08T10:25:00.386Z,572
2016-11-08T10:26:10.706Z,556
2016-11-08T10:27:21.028Z,576
2016-11-08T10:28:31.346Z,580
2016-11-08T10:29:42.143Z,588
2016-11-08T10:30:52.476Z,572
2016-11-08T10:32:17.369Z,588
2016-11-08T10:33:27.690Z,604
2016-11-08T10:34:38.207Z,636
2016-11-08T10:35:48.534Z,728
2016-11-08T10:36:58.881Z,772
2016-11-08T10:38:09.200Z,848
2016-11-08T10:39:19.524Z,848
2016-11-08T10:40:29.854Z,828
2016-11-08T10:41:40.179Z,860
2016-11-08T10:43:05.066Z,868
2016-11-08T10:44:15.386Z,908
2016-11-08T10:45:25.710Z,932
2016-11-08T10:46:36.033Z,944
2016-11-08T10:48:00.919Z,968
2016-11-08T10:49:11.239Z,972
2016-11-08T10:50:21.587Z,996
2016-11-08T10:51:31.909Z,1004
2016-11-08T10:52:42.229Z,1068
2016-11-08T10:53:52.585Z,1104
2016-11-08T10:56:27.891Z,1004
2016-11-08T10:57:38.295Z,916
2016-11-08T10:59:03.281Z,896
2016-11-08T11:00:13.722Z,844
2016-11-08T11:01:24.163Z,796
2016-11-08T11:02:34.701Z,712
2016-11-08T11:03:45.140Z,696
2016-11-08T11:04:55.618Z,692
2016-11-08T11:06:06.066Z,672
2016-11-08T11:07:16.534Z,700
2016-11-08T11:08:26.980Z,716
2016-11-08T11:09:37.418Z,820
2016-11-08T11:10:47.861Z,832
2016-11-08T11:11:58.301Z,768
2016-11-08T11:13:08.737Z,744
2016-11-08T11:14:19.178Z,676
2016-11-08T11:15:29.621Z,656
2016-11-08T11:16:40.093Z,644
2016-11-08T11:17:50.536Z,612
2016-11-08T11:19:15.724Z,604
2016-11-08T11:20:26.162Z,776
2016-11-08T11:23:01.579Z,848
2016-11-08T11:24:12.014Z,840
2016-11-08T11:25:22.497Z,844
2016-11-08T11:26:32.930Z,872
2016-11-08T11:27:43.851Z,884
2016-11-08T11:29:09.383Z,900
2016-11-08T11:30:19.913Z,872
2016-11-08T11:31:30.441Z,888
2016-11-08T11:32:40.976Z,880
2016-11-08T11:33:51.579Z,860
2016-11-08T11:35:02.113Z,828
2016-11-08T11:36:12.648Z,816
2016-11-08T11:37:23.184Z,800
2016-11-08T11:38:33.713Z,804
2016-11-08T11:39:44.246Z,788
2016-11-08T11:40:54.878Z,780
2016-11-08T11:42:05.404Z,808
2016-11-08T11:43:15.934Z,820
2016-11-08T11:44:26.470Z,832
2016-11-08T11:45:37.000Z,832
2016-11-08T11:46:47.818Z,856
2016-11-08T11:47:58.350Z,880
2016-11-08T11:49:09.374Z,888
2016-11-08T11:50:19.908Z,892
2016-11-08T11:51:30.439Z,876
2016-11-08T11:52:55.495Z,884
2016-11-08T11:54:06.027Z,900
2016-11-08T11:55:16.553Z,920
2016-11-08T11:56:27.121Z,932
2016-11-08T11:57:37.885Z,976
2016-11-08T11:58:48.423Z,960
2016-11-08T11:59:58.954Z,1004
2016-11-08T12:01:09.490Z,1008
2016-11-08T12:02:20.032Z,964
2016-11-08T12:03:30.560Z,1052
2016-11-08T12:04:41.046Z,1128
2016-11-08T12:05:51.457Z,1120
2016-11-08T12:08:55.928Z,1208
2016-11-08T12:10:06.337Z,1244
2016-11-08T12:11:16.762Z,1336
2016-11-08T12:12:27.173Z,1360
2016-11-08T12:13:52.136Z,1496
2016-11-08T12:15:02.548Z,1548
2016-11-08T12:16:12.967Z,1588
2016-11-08T12:17:23.379Z,1672
2016-11-08T12:18:33.791Z,1712
2016-11-08T12:19:44.299Z,1768
2016-11-08T12:20:54.725Z,1796
2016-11-08T12:22:05.170Z,1836
2016-11-08T12:23:30.132Z,1756
2016-11-08T12:24:41.029Z,1904
2016-11-08T12:25:51.440Z,1996
2016-11-08T12:27:01.857Z,1876
2016-11-08T12:28:12.268Z,1944
2016-11-08T12:29:22.682Z,2072
2016-11-08T12:30:33.104Z,2112
2016-11-08T12:31:43.539Z,2112
2016-11-08T12:32:53.954Z,2000
2016-11-08T12:34:04.381Z,1900
2016-11-08T12:35:14.798Z,2164
2016-11-08T12:36:25.408Z,1004
2016-11-08T12:39:00.792Z,2012
2016-11-08T12:40:11.200Z,804
2016-11-08T12:41:36.366Z,2364
2016-11-08T12:42:46.780Z,2336
2016-11-08T12:43:57.195Z,2272
2016-11-08T12:45:07.616Z,2256
2016-11-08T12:46:18.032Z,2324
2016-11-08T12:47:28.544Z,1844
2016-11-08T12:48:38.967Z,2256
2016-11-08T12:49:49.380Z,2388
2016-11-08T12:50:59.793Z,2388
2016-11-08T12:52:10.208Z,2340
2016-11-08T12:53:35.175Z,2288
2016-11-08T12:54:45.594Z,2428
2016-11-08T12:55:56.047Z,2416
2016-11-08T12:57:21.012Z,2416
2016-11-08T12:58:31.425Z,2356
2016-11-08T12:59:41.873Z,2412
2016-11-08T13:00:52.291Z,2444
2016-11-08T13:02:02.708Z,2456
2016-11-08T13:03:13.644Z,2476
2016-11-08T13:04:24.259Z,2496
2016-11-08T13:05:34.716Z,2496
2016-11-08T13:06:45.135Z,2528
2016-11-08T13:08:10.105Z,2496
2016-11-08T13:09:20.725Z,2496
2016-11-08T13:10:31.180Z,2544
2016-11-08T13:11:41.600Z,2520
2016-11-08T13:13:06.570Z,2472
2016-11-08T13:14:17.014Z,2492
2016-11-08T13:15:27.636Z,2536
2016-11-08T13:16:38.058Z,2596
2016-11-08T13:17:48.474Z,2612
2016-11-08T13:18:58.889Z,2580
2016-11-08T13:20:09.309Z,2580
2016-11-08T13:22:44.701Z,2560
2016-11-08T13:24:09.670Z,2588
2016-11-08T13:25:20.084Z,2564
2016-11-08T13:26:30.504Z,2552
2016-11-08T13:27:40.922Z,2576
2016-11-08T13:28:51.821Z,2584
2016-11-08T13:30:02.243Z,2520
2016-11-08T13:31:12.658Z,2540
2016-11-08T13:32:23.079Z,2536
2016-11-08T13:33:33.501Z,2568
2016-11-08T13:34:43.952Z,2600
2016-11-08T13:35:54.374Z,2632
2016-11-08T13:37:05.275Z,2620
2016-11-08T13:38:15.691Z,2628
2016-11-08T13:39:55.213Z,2676
2016-11-08T13:41:05.635Z,2692
2016-11-08T13:42:16.254Z,2668
2016-11-08T13:43:26.606Z,2608
2016-11-08T13:44:36.974Z,2604
2016-11-08T13:45:47.304Z,2628
2016-11-08T13:47:12.365Z,2596
2016-11-08T13:48:37.263Z,2564
2016-11-08T13:49:47.622Z,2584
2016-11-08T13:50:57.957Z,2552
2016-11-08T13:52:08.294Z,2548
2016-11-08T13:53:18.622Z,2452
2016-11-08T13:54:28.944Z,2432
2016-11-08T13:55:39.275Z,2480
2016-11-08T13:56:49.604Z,2444
2016-11-08T13:57:59.941Z,2276
2016-11-08T13:59:10.469Z,2224
2016-11-08T14:00:20.797Z,2316
2016-11-08T14:01:31.122Z,956
2016-11-08T14:02:56.026Z,820
2016-11-08T14:04:07.032Z,760
2016-11-08T14:05:31.929Z,1020
2016-11-08T14:06:42.260Z,2264
2016-11-08T14:07:52.600Z,2388
2016-11-08T14:09:02.932Z,2548
2016-11-08T14:10:13.265Z,1324
2016-11-08T14:11:38.168Z,2512
2016-11-08T14:12:48.498Z,2424
2016-11-08T14:13:58.825Z,2520
2016-11-08T14:15:09.159Z,2672
2016-11-08T14:16:19.971Z,2680
2016-11-08T14:17:30.335Z,2732
2016-11-08T14:18:40.661Z,2724
2016-11-08T14:19:50.996Z,2812
2016-11-08T14:21:01.526Z,2848
2016-11-08T14:22:11.851Z,1224
2016-11-08T14:23:22.179Z,1052
2016-11-08T14:24:32.506Z,2836
2016-11-08T14:25:42.871Z,2780
2016-11-08T14:26:53.231Z,2672
2016-11-08T14:28:03.558Z,2616
2016-11-08T14:29:28.870Z,2600
2016-11-08T14:30:39.295Z,2820
2016-11-08T14:31:49.912Z,2688
2016-11-08T14:33:00.342Z,2624
2016-11-08T14:34:10.841Z,2672
2016-11-08T14:35:21.409Z,1804
2016-11-08T14:36:32.448Z,2568
2016-11-08T14:37:43.190Z,2592
2016-11-08T14:38:53.731Z,2736
2016-11-08T14:40:04.277Z,2760
2016-11-08T14:42:39.952Z,2720
2016-11-08T14:43:50.489Z,2636
2016-11-08T14:45:01.029Z,2676
2016-11-08T14:46:11.570Z,2680
2016-11-08T14:47:22.119Z,2508
2016-11-08T14:48:32.659Z,2576
2016-11-08T14:49:43.199Z,2632
2016-11-08T14:50:53.741Z,2588
2016-11-08T14:52:04.281Z,2568
2016-11-08T14:53:14.824Z,2388
2016-11-08T14:54:25.394Z,1232
2016-11-08T14:55:35.933Z,972
2016-11-08T14:57:01.495Z,924
2016-11-08T14:58:12.041Z,936
2016-11-08T14:59:22.690Z,976
2016-11-08T15:00:33.231Z,916
2016-11-08T15:01:43.768Z,872
2016-11-08T15:02:54.306Z,884
2016-11-08T15:04:04.842Z,996
2016-11-08T15:05:15.380Z,1004
2016-11-08T15:06:54.973Z,1048
2016-11-08T15:08:06.038Z,1056
2016-11-08T15:09:16.613Z,960
2016-11-08T15:11:52.744Z,840
2016-11-08T15:13:03.258Z,796
2016-11-08T15:14:13.703Z,768
2016-11-08T15:15:24.355Z,716
2016-11-08T15:16:34.800Z,744
2016-11-08T15:17:45.250Z,776
2016-11-08T15:18:55.693Z,792
2016-11-08T15:20:20.680Z,856
2016-11-08T15:21:31.122Z,940
2016-11-08T15:22:41.578Z,1284
2016-11-08T15:23:52.017Z,2152
2016-11-08T15:25:17.009Z,2192
2016-11-08T15:26:41.997Z,2164
2016-11-08T15:29:17.264Z,2104
2016-11-08T15:30:27.591Z,2100
2016-11-08T15:31:37.914Z,2044
2016-11-08T15:33:02.813Z,2004
2016-11-08T15:34:13.613Z,1944
2016-11-08T15:35:23.935Z,1828
2016-11-08T15:36:34.461Z,1740
2016-11-08T15:37:44.790Z,852
2016-11-08T15:38:55.151Z,760
2016-11-08T15:40:05.473Z,728
2016-11-08T15:41:15.847Z,744
2016-11-08T15:42:26.169Z,732
2016-11-08T15:43:36.493Z,920
2016-11-08T15:44:46.861Z,1588
2016-11-08T15:46:11.756Z,1660
2016-11-08T15:47:22.100Z,1132
2016-11-08T15:48:32.421Z,916
2016-11-08T15:49:42.749Z,920
2016-11-08T15:50:53.078Z,832
2016-11-08T15:52:03.401Z,788
2016-11-08T15:53:14.250Z,784
2016-11-08T15:54:39.143Z,724
2016-11-08T15:55:49.467Z,680
2016-11-08T15:56:59.790Z,880
2016-11-08T15:58:24.688Z,764
2016-11-08T15:59:35.488Z,904
2016-11-08T16:00:45.817Z,1552
2016-11-08T16:01:56.140Z,1568
2016-11-08T16:03:06.462Z,1580
2016-11-08T16:04:31.357Z,1552
2016-11-08T16:05:41.679Z,1556
2016-11-08T16:06:51.999Z,1476
2016-11-08T16:08:02.324Z,1464
2016-11-08T16:09:13.222Z,1452
2016-11-08T16:10:38.118Z,1448
2016-11-08T16:12:03.016Z,1440
2016-11-08T16:13:13.374Z,1384
2016-11-08T16:14:23.804Z,828
2016-11-08T16:15:34.127Z,876
2016-11-08T16:16:44.463Z,1232
2016-11-08T16:17:54.803Z,1340
2016-11-08T16:19:05.157Z,1040
2016-11-08T16:20:15.681Z,924
2016-11-08T16:21:26.014Z,908
2016-11-08T16:24:15.800Z,884
2016-11-08T16:26:51.021Z,776
2016-11-08T16:28:01.351Z,956
2016-11-08T16:29:11.675Z,976
2016-11-08T16:30:22.126Z,944
2016-11-08T16:31:32.454Z,980
2016-11-08T16:32:42.779Z,1268
2016-11-08T16:33:53.108Z,1016
2016-11-08T16:36:28.328Z,896
2016-11-08T16:37:38.657Z,856
2016-11-08T16:38:49.458Z,808
2016-11-08T16:39:59.782Z,776
2016-11-08T16:41:10.308Z,820
2016-11-08T16:42:35.200Z,1116
2016-11-08T16:43:45.528Z,1056
2016-11-08T16:44:55.852Z,912
2016-11-08T16:47:45.843Z,880
2016-11-08T16:48:56.169Z,840
2016-11-08T16:50:06.499Z,784
2016-11-08T16:51:31.593Z,648
2016-11-08T16:52:41.958Z,612
2016-11-08T16:53:52.290Z,644
2016-11-08T16:55:02.651Z,708
2016-11-08T16:56:27.543Z,748
2016-11-08T16:57:37.867Z,884
2016-11-08T16:58:48.216Z,932
2016-11-08T16:59:59.014Z,1188
2016-11-08T17:01:09.344Z,1276
2016-11-08T17:02:20.818Z,1312
2016-11-08T17:03:31.138Z,1368
2016-11-08T17:04:41.467Z,1304
2016-11-08T17:05:51.792Z,1280
2016-11-08T17:07:02.115Z,1336
2016-11-08T17:08:12.444Z,1336
2016-11-08T17:09:22.770Z,1064
2016-11-08T17:10:33.098Z,1332
2016-11-08T17:11:44.258Z,1268
2016-11-08T17:12:54.580Z,996
2016-11-08T17:14:04.922Z,1252
2016-11-08T17:15:15.248Z,1252
2016-11-08T17:16:25.580Z,928
2016-11-08T17:17:35.905Z,784
2016-11-08T17:18:46.229Z,1148
2016-11-08T17:19:56.558Z,1216